This is the latest recevied weather packets stored in our database for station/object NE1CU. If no packets are shown the sender has not sent any weather packets the latest 1 day(s).
| Time | Temp. | Humidity | Pressure | Rain* | Wind** | Luminosity | Snow |
|---|---|---|---|---|---|---|---|
| 1777999273 | 23.33° C | 55% | 1010 hPa | 0 mm | 0.45 m/s, 138° | 943 W/m² | - |
| 1777998972 | 23.33° C | 51% | 1010 hPa | 0 mm | 1.34 m/s, 261° | 945 W/m² | - |
| 1777998669 | 22.78° C | 54% | 1010.2 hPa | 0 mm | 0.89 m/s, 142° | 930 W/m² | - |
| 1777998366 | 22.78° C | 54% | 1010.4 hPa | 0 mm | 1.34 m/s, 150° | 930 W/m² | - |
| 1777998064 | 22.78° C | 55% | 1010.4 hPa | 0 mm | 0.89 m/s, 149° | 930 W/m² | - |
| 1777997760 | 22.78° C | 56% | 1010.6 hPa | 0 mm | 0.89 m/s, 149° | 925 W/m² | - |
| 1777997458 | 22.78° C | 56% | 1010.6 hPa | 0 mm | 0.89 m/s, 135° | 924 W/m² | - |
| 1777997155 | 22.78° C | 55% | 1010.5 hPa | 0 mm | 1.34 m/s, 233° | 921 W/m² | - |
| 1777996853 | 22.78° C | 54% | 1010.6 hPa | 0 mm | 1.34 m/s, 168° | 914 W/m² | - |
| 1777996548 | 22.78° C | 57% | 1010.7 hPa | 0 mm | 0.45 m/s, 142° | 907 W/m² | - |
| 1777996245 | 22.78° C | 55% | 1010.5 hPa | 0 mm | 0.89 m/s, 156° | 902 W/m² | - |
| 1777995941 | 23.33° C | 56% | 1010.4 hPa | 0 mm | 0.45 m/s, 104° | 899 W/m² | - |
| 1777995638 | 23.33° C | 54% | 1010.7 hPa | 0 mm | 0.89 m/s, 141° | 888 W/m² | - |
| 1777995335 | 23.33° C | 55% | 1010.8 hPa | 0 mm | 0.89 m/s, 169° | 878 W/m² | - |
| 1777995032 | 22.78° C | 53% | 1011 hPa | 0 mm | 1.34 m/s, 172° | 871 W/m² | - |
| 1777994729 | 22.78° C | 55% | 1011 hPa | 0 mm | 1.34 m/s, 234° | 864 W/m² | - |
| 1777994425 | 22.78° C | 56% | 1011.1 hPa | 0 mm | 0.89 m/s, 125° | 854 W/m² | - |
| 1777994120 | 22.22° C | 57% | 1011.3 hPa | 0 mm | 0.89 m/s, 213° | 850 W/m² | - |
| 1777993817 | 22.22° C | 56% | 1011.3 hPa | 0 mm | 0.89 m/s, 187° | 835 W/m² | - |
| 1777993514 | 22.22° C | 55% | 1011.3 hPa | 0 mm | 0.89 m/s, 113° | 825 W/m² | - |
| 1777993210 | 21.67° C | 55% | 1011.4 hPa | 0 mm | 1.79 m/s, 263° | 817 W/m² | - |
| 1777992906 | 21.67° C | 55% | 1011 hPa | 0 mm | 2.24 m/s, 220° | 806 W/m² | - |
| 1777992604 | 21.67° C | 57% | 1011.1 hPa | 0 mm | 1.34 m/s, 138° | 797 W/m² | - |
| 1777992302 | 21.11° C | 56% | 1011 hPa | 0 mm | 1.34 m/s, 91° | 784 W/m² | - |
| 1777991999 | 21.11° C | 57% | 1011.2 hPa | 0 mm | 0.89 m/s, 157° | 772 W/m² | - |
* Rain latest hour (hover to see other rain measurements)
** Current wind speed in m/s (hover to see current wind gust speed)